VRMM

Malé International Airport

Malé, Maldives
TAF VRMM 162300Z 1700/1806 27013KT 9999 SCT017TCU TEMPO 1700/1706 27018G38KT 2000 SHRA FEW010 SCT016 FEW017CB BKN100
Issued Valid From Valid To
Jul-16 @ 23:00 UTC
(an hour ago)
Jul-17 @ 00:00 UTC
(26 minutes ago)
Jul-18 @ 06:00 UTC
(-1 days ago)
Jul-17 @ 00:00 to Jul-18 @ 06:00
TAF VRMM 162300Z 1700/1806 27013KT 9999 SCT017TCU
Wind Visibility Clouds
270° at 13 knots 10,000+ meters
  • Scattered at 1,700' AGL
Temporary Jul-17 @ 00:00 to Jul-17 @ 06:00
TEMPO 1700/1706 27018G38KT 2000 SHRA FEW010 SCT016 FEW017CB BKN100
Wind Visibility Clouds Conditions
270° at 18 knots
 Gusting to 38 knots
1,996 meters
  • Few at 1,000' AGL
  • Scattered at 1,600' AGL
  • Few at 1,700' AGL
  • Rain
TAF VRMM 162300Z 1700/1806 27013KT 9999 SCT017TCU TEMPO 1700/1706 27018G38KT 2000 SHRA FEW010 SCT016 FEW017CB BKN100
Issued Jul-16 @ 23:00 UTC
(an hour ago)
Valid From Jul-17 @ 00:00 UTC
(26 minutes ago)
Valid To Jul-18 @ 06:00 UTC
(-1 days ago)
Jul-17 @ 00:00 - Jul-18 @ 06:00
Wind Visibility
270° at 13 knots 10,000+ meters
Clouds
  • Scattered at 1,700' AGL
Temporary Jul-17 @ 00:00 - Jul-17 @ 06:00
Wind Visibility
270° at 18 knots
 Gusting to 38 knots
1,996 meters
Clouds
  • Few at 1,000' AGL
  • Scattered at 1,600' AGL
  • Few at 1,700' AGL
Conditions
  • Rain